Time;durP1;ratioP1;P1;durP2;ratioP2;P2;SDS_P1;SDS_P2;PMS_P1;PMS_P2;Temp;Humidity;BMP_temperature;BMP_pressure;BME280_temperature;BME280_humidity;BME280_pressure;Samples;Min_cycle;Max_cycle;Signal;HPM_P1;HPM_P2
2021/11/19 00:02:15;;;;;;;20.50;8.80;;;;;;;;;;21168340;28;20043;-57
2021/11/19 00:12:17;;;;;;;24.25;8.35;;;;;;;;;;21176047;28;20051;-57
2021/11/19 00:22:20;;;;;;;13.85;7.03;;;;;;;;;;21176517;28;20602;-57
2021/11/19 00:32:22;;;;;;;23.38;11.73;;;;;;;;;;21174492;28;20082;-56
2021/11/19 00:42:25;;;;;;;7.15;5.18;;;;;;;;;;21173523;28;20044;-57
2021/11/19 00:52:27;;;;;;;8.20;4.80;;;;;;;;;;21173023;28;20098;-57
2021/11/19 01:02:30;;;;;;;8.43;5.32;;;;;;;;;;21172444;28;20075;-57
2021/11/19 01:12:32;;;;;;;8.40;5.07;;;;;;;;;;21170269;28;20058;-68
2021/11/19 01:22:36;;;;;;;7.43;5.20;;;;;;;;;;21163113;28;20055;-57
2021/11/19 01:32:38;;;;;;;7.88;5.20;;;;;;;;;;21169670;28;20138;-57
2021/11/19 01:42:44;;;;;;;8.85;5.57;;;;;;;;;;21169430;28;20421;-56
2021/11/19 01:52:52;;;;;;;11.13;5.15;;;;;;;;;;21168374;28;20136;-56
2021/11/19 02:02:55;;;;;;;15.43;5.22;;;;;;;;;;21167313;28;20093;-57
2021/11/19 02:13:05;;;;;;;6.20;3.73;;;;;;;;;;21149046;28;20499;-57
2021/11/19 02:23:19;;;;;;;6.20;3.63;;;;;;;;;;21165392;28;20126;-56
2021/11/19 02:33:24;;;;;;;5.68;4.03;;;;;;;;;;21164687;28;20062;-56
2021/11/19 02:43:29;;;;;;;4.53;3.55;;;;;;;;;;21164815;28;20047;-57
2021/11/19 02:53:33;;;;;;;5.80;3.42;;;;;;;;;;21163937;28;20094;-57
2021/11/19 03:03:37;;;;;;;4.28;3.00;;;;;;;;;;21163886;28;20092;-56
2021/11/19 03:13:40;;;;;;;7.25;3.30;;;;;;;;;;21162847;28;20056;-57
2021/11/19 03:23:45;;;;;;;7.22;3.53;;;;;;;;;;21162886;28;20043;-57
2021/11/19 03:33:50;;;;;;;4.83;2.67;;;;;;;;;;21163563;28;20056;-57
2021/11/19 03:44:05;;;;;;;5.97;2.83;;;;;;;;;;21178477;28;20048;-57
2021/11/19 03:54:09;;;;;;;4.03;2.87;;;;;;;;;;21159988;28;20476;-60
2021/11/19 04:04:13;;;;;;;3.58;2.47;;;;;;;;;;21177900;28;20446;-56
2021/11/19 04:14:16;;;;;;;4.23;2.40;;;;;;;;;;21176326;28;20087;-57
2021/11/19 04:24:22;;;;;;;3.83;2.38;;;;;;;;;;21175963;28;20040;-56
2021/11/19 04:34:25;;;;;;;3.90;2.40;;;;;;;;;;21156952;28;20083;-56
2021/11/19 04:44:30;;;;;;;4.93;2.22;;;;;;;;;;21174700;28;20472;-59
2021/11/19 04:54:32;;;;;;;4.03;2.47;;;;;;;;;;21173259;28;20399;-57
2021/11/19 05:04:36;;;;;;;3.22;2.30;;;;;;;;;;21172388;28;20445;-56
2021/11/19 05:14:39;;;;;;;4.80;2.55;;;;;;;;;;21171637;28;20180;-57
2021/11/19 05:24:42;;;;;;;5.90;2.55;;;;;;;;;;21171641;28;20392;-56
2021/11/19 05:34:45;;;;;;;3.38;2.35;;;;;;;;;;21170164;28;20047;-57
2021/11/19 05:44:48;;;;;;;3.88;2.50;;;;;;;;;;21150517;28;20051;-56
2021/11/19 05:54:50;;;;;;;3.42;2.53;;;;;;;;;;21168369;28;20083;-57
2021/11/19 06:04:53;;;;;;;7.97;3.00;;;;;;;;;;21167625;28;20047;-57
2021/11/19 06:15:00;;;;;;;5.63;2.33;;;;;;;;;;21166988;28;20070;-60
2021/11/19 06:25:04;;;;;;;5.80;2.80;;;;;;;;;;21166346;28;20089;-66
2021/11/19 06:35:07;;;;;;;4.13;2.65;;;;;;;;;;21164863;28;20134;-57
2021/11/19 06:45:11;;;;;;;6.35;2.97;;;;;;;;;;21164949;28;20047;-58
2021/11/19 06:55:14;;;;;;;5.72;3.28;;;;;;;;;;21164241;28;20442;-56
2021/11/19 07:05:17;;;;;;;7.75;3.80;;;;;;;;;;21163162;28;20153;-57
2021/11/19 07:15:19;;;;;;;5.72;3.05;;;;;;;;;;21162438;28;20392;-59
2021/11/19 07:25:22;;;;;;;6.00;3.03;;;;;;;;;;21161786;28;20405;-57
2021/11/19 07:35:25;;;;;;;7.38;3.15;;;;;;;;;;21161852;28;20051;-57
2021/11/19 07:45:36;;;;;;;7.60;3.10;;;;;;;;;;21161898;28;20484;-58
2021/11/19 07:55:39;;;;;;;5.07;3.10;;;;;;;;;;21161399;28;20134;-57
2021/11/19 08:05:44;;;;;;;7.50;3.17;;;;;;;;;;21161452;28;20039;-59
2021/11/19 08:15:47;;;;;;;6.68;3.05;;;;;;;;;;21160334;28;20506;-57
2021/11/19 08:25:49;;;;;;;6.80;3.95;;;;;;;;;;21171021;28;20426;-57
2021/11/19 08:35:52;;;;;;;7.45;3.42;;;;;;;;;;21174250;28;20142;-57
2021/11/19 08:45:56;;;;;;;7.18;3.50;;;;;;;;;;21173942;28;20472;-58
2021/11/19 08:56:01;;;;;;;7.10;3.00;;;;;;;;;;21172770;28;20057;-57
2021/11/19 09:06:06;;;;;;;6.30;3.13;;;;;;;;;;21172211;28;20052;-57
2021/11/19 09:16:11;;;;;;;7.83;3.23;;;;;;;;;;21171100;28;20055;-58
2021/11/19 09:26:18;;;;;;;11.13;3.17;;;;;;;;;;21171339;28;20071;-58
2021/11/19 09:36:21;;;;;;;4.73;2.83;;;;;;;;;;21170363;28;20476;-57
2021/11/19 09:46:43;;;;;;;6.82;3.20;;;;;;;;;;21168665;28;20488;-57
2021/11/19 09:56:49;;;;;;;7.00;3.53;;;;;;;;;;21167583;28;20070;-59
2021/11/19 10:07:08;;;;;;;5.45;2.80;;;;;;;;;;21166682;28;20431;-67
2021/11/19 10:17:43;;;;;;;4.53;2.33;;;;;;;;;;21165560;28;20073;-55
2021/11/19 10:27:47;;;;;;;3.97;2.08;;;;;;;;;;20814019;28;20057;-57
2021/11/19 10:38:08;;;;;;;2.83;1.70;;;;;;;;;;20740041;28;20274;-58
2021/11/19 10:48:34;;;;;;;7.72;2.40;;;;;;;;;;20738653;28;20062;-55
2021/11/19 10:58:51;;;;;;;4.15;2.25;;;;;;;;;;20872216;28;20058;-54
2021/11/19 11:08:53;;;;;;;;;;;;;;;;;;21078544;28;20139;-55
2021/11/19 11:19:12;;;;;;;3.50;2.50;;;;;;;;;;21077865;28;19920;-57
2021/11/19 11:29:16;;;;;;;5.80;2.35;;;;;;;;;;21076752;28;20395;-56
2021/11/19 11:39:22;;;;;;;8.50;2.47;;;;;;;;;;21077581;28;20040;-55
2021/11/19 11:49:33;;;;;;;5.47;2.30;;;;;;;;;;21076191;28;20060;-54
2021/11/19 11:59:43;;;;;;;6.57;2.90;;;;;;;;;;21158562;28;20047;-55
2021/11/19 12:09:50;;;;;;;6.30;2.50;;;;;;;;;;21176881;28;20071;-52
2021/11/19 12:19:53;;;;;;;7.10;2.60;;;;;;;;;;21175383;28;20097;-68
2021/11/19 12:30:01;;;;;;;4.25;2.22;;;;;;;;;;21174405;28;20044;-58
2021/11/19 12:40:11;;;;;;;6.50;3.08;;;;;;;;;;21173797;28;20134;-57
2021/11/19 12:50:29;;;;;;;4.35;2.45;;;;;;;;;;21172268;28;20067;-57
2021/11/19 13:00:38;;;;;;;6.22;3.10;;;;;;;;;;21169911;28;20082;-56
2021/11/19 13:10:42;;;;;;;5.93;2.80;;;;;;;;;;21170576;28;20040;-59
2021/11/19 13:20:46;;;;;;;5.18;2.25;;;;;;;;;;21151622;28;20142;-60
2021/11/19 13:30:53;;;;;;;5.32;2.58;;;;;;;;;;21168701;28;20094;-62
2021/11/19 13:41:16;;;;;;;4.88;2.13;;;;;;;;;;21167700;28;20044;-59
2021/11/19 13:51:25;;;;;;;3.97;2.30;;;;;;;;;;21167311;28;20077;-62
2021/11/19 14:01:34;;;;;;;6.07;2.28;;;;;;;;;;21149575;28;20083;-58
2021/11/19 14:11:38;;;;;;;5.75;2.25;;;;;;;;;;21166750;28;20048;-58
2021/11/19 14:21:58;;;;;;;2.95;1.60;;;;;;;;;;21166206;28;20054;-57
2021/11/19 14:32:05;;;;;;;4.43;2.00;;;;;;;;;;21165424;28;20495;-58
2021/11/19 14:42:09;;;;;;;7.35;2.60;;;;;;;;;;21146379;28;20069;-59
2021/11/19 14:52:14;;;;;;;4.75;1.92;;;;;;;;;;21145741;28;20048;-57
2021/11/19 15:02:25;;;;;;;6.03;1.40;;;;;;;;;;21163596;28;20134;-57
2021/11/19 15:12:33;;;;;;;5.35;1.60;;;;;;;;;;21163152;28;20039;-58
2021/11/19 15:22:51;;;;;;;6.45;3.00;;;;;;;;;;21162559;28;20044;-58
2021/11/19 15:32:55;;;;;;;4.90;2.17;;;;;;;;;;21199050;27;20055;-60
2021/11/19 15:43:01;;;;;;;4.55;2.10;;;;;;;;;;21263657;27;20054;-60
2021/11/19 15:53:12;;;;;;;5.95;2.15;;;;;;;;;;21262104;27;20080;-60
2021/11/19 16:03:30;;;;;;;5.18;1.70;;;;;;;;;;21262480;27;20058;-61
2021/11/19 16:13:34;;;;;;;5.38;1.88;;;;;;;;;;21260508;27;20057;-58
2021/11/19 16:23:37;;;;;;;5.97;2.17;;;;;;;;;;21260628;27;20039;-56
2021/11/19 16:33:39;;;;;;;4.53;2.05;;;;;;;;;;21254491;27;20054;-58
2021/11/19 16:43:42;;;;;;;5.32;1.92;;;;;;;;;;21254129;27;20057;-58
2021/11/19 16:53:44;;;;;;;5.72;3.65;;;;;;;;;;21253280;28;20483;-54
2021/11/19 17:03:46;;;;;;;4.72;1.80;;;;;;;;;;21253149;28;20475;-62
2021/11/19 17:13:48;;;;;;;3.63;1.65;;;;;;;;;;21252322;28;20196;-61
2021/11/19 17:23:50;;;;;;;4.68;1.90;;;;;;;;;;21251494;28;20428;-60
2021/11/19 17:33:53;;;;;;;8.25;2.35;;;;;;;;;;21213253;27;1187425;-57
2021/11/19 17:43:54;;;;;;;5.50;1.95;;;;;;;;;;21254650;27;20096;-56
2021/11/19 17:53:56;;;;;;;4.13;2.20;;;;;;;;;;21253745;27;20051;-65
2021/11/19 18:03:58;;;;;;;5.07;2.67;;;;;;;;;;21254098;27;20107;-63
2021/11/19 18:14:02;;;;;;;7.50;3.00;;;;;;;;;;21251393;27;20047;-61
2021/11/19 18:24:05;;;;;;;5.60;3.10;;;;;;;;;;21251598;27;20047;-62
2021/11/19 18:34:07;;;;;;;7.25;3.60;;;;;;;;;;21250259;27;20419;-61
2021/11/19 18:44:10;;;;;;;7.00;4.25;;;;;;;;;;21249023;27;20448;-66
2021/11/19 18:54:13;;;;;;;6.30;2.58;;;;;;;;;;21247750;27;20090;-55
2021/11/19 19:04:15;;;;;;;6.78;4.03;;;;;;;;;;21126664;27;20098;-65
2021/11/19 19:14:19;;;;;;;6.15;3.15;;;;;;;;;;21246312;27;20100;-66
2021/11/19 19:24:26;;;;;;;7.50;3.27;;;;;;;;;;21246306;28;20051;-58
2021/11/19 19:34:29;;;;;;;6.82;3.67;;;;;;;;;;21246437;28;20096;-62
2021/11/19 19:44:31;;;;;;;7.07;3.50;;;;;;;;;;21246894;28;20121;-58
2021/11/19 19:54:38;;;;;;;4.15;2.90;;;;;;;;;;21246141;28;20055;-59
2021/11/19 20:04:40;;;;;;;9.40;3.78;;;;;;;;;;21245598;28;20047;-60
2021/11/19 20:14:42;;;;;;;4.32;2.47;;;;;;;;;;21246258;27;20044;-59
2021/11/19 20:24:45;;;;;;;6.50;3.70;;;;;;;;;;21260485;27;20507;-60
2021/11/19 20:34:48;;;;;;;6.35;4.80;;;;;;;;;;21259788;27;20075;-58
2021/11/19 20:44:51;;;;;;;5.47;2.95;;;;;;;;;;21259032;27;20078;-58
2021/11/19 20:54:53;;;;;;;3.97;2.40;;;;;;;;;;21258187;27;20498;-57
2021/11/19 21:04:55;;;;;;;3.83;2.65;;;;;;;;;;21257924;27;20090;-58
2021/11/19 21:15:00;;;;;;;5.15;2.60;;;;;;;;;;21257437;27;20482;-61
2021/11/19 21:25:04;;;;;;;5.97;3.27;;;;;;;;;;21255726;27;20054;-61
2021/11/19 21:35:09;;;;;;;6.37;3.57;;;;;;;;;;21254153;27;20054;-61
2021/11/19 21:45:11;;;;;;;;;;;;;;;;;;21255509;27;20051;-59
2021/11/19 21:55:21;;;;;;;5.20;3.08;;;;;;;;;;21236120;27;19924;-61
2021/11/19 22:05:34;;;;;;;7.63;3.97;;;;;;;;;;21253339;27;20099;-61
2021/11/19 22:15:37;;;;;;;5.70;3.67;;;;;;;;;;21252582;27;20051;-64
2021/11/19 22:25:40;;;;;;;7.22;3.45;;;;;;;;;;21250076;27;20133;-62
2021/11/19 22:35:42;;;;;;;5.32;3.05;;;;;;;;;;21250257;27;20047;-59
2021/11/19 22:45:44;;;;;;;6.10;3.30;;;;;;;;;;21250415;27;20100;-60
2021/11/19 22:55:48;;;;;;;5.57;3.50;;;;;;;;;;21249580;27;20047;-60
2021/11/19 23:05:51;;;;;;;7.45;3.60;;;;;;;;;;21249121;27;20043;-60
2021/11/19 23:15:55;;;;;;;7.38;3.35;;;;;;;;;;21248990;27;20501;-61
2021/11/19 23:25:58;;;;;;;7.03;3.63;;;;;;;;;;21230242;28;20050;-60
2021/11/19 23:36:10;;;;;;;6.30;3.50;;;;;;;;;;21248082;28;20062;-59
2021/11/19 23:46:13;;;;;;;5.30;2.70;;;;;;;;;;21251363;28;20495;-60
2021/11/19 23:56:20;;;;;;;7.97;3.30;;;;;;;;;;21263173;27;20051;-61
